sensor_id;sensor_type;location;lat;lon;timestamp;P1;durP1;ratioP1;P2;durP2;ratioP2
60086;SDS011;45960;53.630;55.972;2023-07-31T00:00:48;8.25;;;3.38;;
60086;SDS011;45960;53.630;55.972;2023-07-31T00:01:49;9.57;;;3.38;;
60086;SDS011;45960;53.630;55.972;2023-07-31T00:02:51;5.78;;;3.30;;
60086;SDS011;45960;53.630;55.972;2023-07-31T00:03:53;8.82;;;3.33;;
60086;SDS011;45960;53.630;55.972;2023-07-31T00:04:54;6.05;;;2.75;;
60086;SDS011;45960;53.630;55.972;2023-07-31T00:05:54;5.53;;;3.15;;
60086;SDS011;45960;53.630;55.972;2023-07-31T00:06:56;5.60;;;3.13;;
60086;SDS011;45960;53.630;55.972;2023-07-31T00:07:56;11.00;;;3.25;;
60086;SDS011;45960;53.630;55.972;2023-07-31T00:08:57;6.25;;;3.05;;
60086;SDS011;45960;53.630;55.972;2023-07-31T00:09:58;9.43;;;2.90;;
60086;SDS011;45960;53.630;55.972;2023-07-31T00:10:59;6.65;;;3.00;;
60086;SDS011;45960;53.630;55.972;2023-07-31T00:12:00;10.02;;;3.08;;
60086;SDS011;45960;53.630;55.972;2023-07-31T00:13:01;8.60;;;2.95;;
60086;SDS011;45960;53.630;55.972;2023-07-31T00:14:02;7.47;;;3.13;;
60086;SDS011;45960;53.630;55.972;2023-07-31T00:15:04;5.68;;;3.15;;
60086;SDS011;45960;53.630;55.972;2023-07-31T00:16:06;4.45;;;2.33;;
60086;SDS011;45960;53.630;55.972;2023-07-31T00:17:08;7.80;;;3.30;;
60086;SDS011;45960;53.630;55.972;2023-07-31T00:18:09;7.75;;;3.13;;
60086;SDS011;45960;53.630;55.972;2023-07-31T00:19:10;6.15;;;3.08;;
60086;SDS011;45960;53.630;55.972;2023-07-31T00:20:11;5.25;;;2.85;;
60086;SDS011;45960;53.630;55.972;2023-07-31T00:21:12;6.43;;;2.88;;
60086;SDS011;45960;53.630;55.972;2023-07-31T00:22:13;12.82;;;3.10;;
60086;SDS011;45960;53.630;55.972;2023-07-31T00:23:14;7.32;;;2.95;;
60086;SDS011;45960;53.630;55.972;2023-07-31T00:24:15;5.25;;;3.40;;
60086;SDS011;45960;53.630;55.972;2023-07-31T00:25:16;5.88;;;3.08;;
60086;SDS011;45960;53.630;55.972;2023-07-31T00:26:17;8.95;;;3.45;;
60086;SDS011;45960;53.630;55.972;2023-07-31T00:27:18;8.60;;;2.97;;
60086;SDS011;45960;53.630;55.972;2023-07-31T00:28:19;6.00;;;2.80;;
60086;SDS011;45960;53.630;55.972;2023-07-31T00:29:20;9.68;;;3.30;;
60086;SDS011;45960;53.630;55.972;2023-07-31T00:30:21;10.68;;;2.95;;
60086;SDS011;45960;53.630;55.972;2023-07-31T00:31:23;4.75;;;3.20;;
60086;SDS011;45960;53.630;55.972;2023-07-31T00:32:24;6.03;;;3.05;;
60086;SDS011;45960;53.630;55.972;2023-07-31T00:33:25;9.30;;;3.00;;
60086;SDS011;45960;53.630;55.972;2023-07-31T00:34:26;11.68;;;3.80;;
60086;SDS011;45960;53.630;55.972;2023-07-31T00:35:27;7.07;;;3.35;;
60086;SDS011;45960;53.630;55.972;2023-07-31T00:36:28;5.95;;;2.92;;
60086;SDS011;45960;53.630;55.972;2023-07-31T00:37:29;7.32;;;2.85;;
60086;SDS011;45960;53.630;55.972;2023-07-31T00:38:30;10.23;;;3.38;;
60086;SDS011;45960;53.630;55.972;2023-07-31T00:39:31;9.10;;;3.20;;
60086;SDS011;45960;53.630;55.972;2023-07-31T00:40:35;6.82;;;3.20;;
60086;SDS011;45960;53.630;55.972;2023-07-31T00:41:38;10.65;;;2.95;;
60086;SDS011;45960;53.630;55.972;2023-07-31T00:42:39;7.20;;;3.35;;
60086;SDS011;45960;53.630;55.972;2023-07-31T00:43:42;6.78;;;2.95;;
60086;SDS011;45960;53.630;55.972;2023-07-31T00:44:43;7.30;;;3.05;;
60086;SDS011;45960;53.630;55.972;2023-07-31T00:45:44;7.75;;;3.55;;
60086;SDS011;45960;53.630;55.972;2023-07-31T00:46:45;10.27;;;3.38;;
60086;SDS011;45960;53.630;55.972;2023-07-31T00:47:46;13.63;;;3.47;;
60086;SDS011;45960;53.630;55.972;2023-07-31T00:48:47;11.98;;;3.33;;
60086;SDS011;45960;53.630;55.972;2023-07-31T00:49:49;7.28;;;3.25;;
60086;SDS011;45960;53.630;55.972;2023-07-31T00:50:50;14.27;;;3.65;;
60086;SDS011;45960;53.630;55.972;2023-07-31T00:51:51;8.38;;;3.58;;
60086;SDS011;45960;53.630;55.972;2023-07-31T00:52:53;10.52;;;3.70;;
60086;SDS011;45960;53.630;55.972;2023-07-31T00:53:54;16.45;;;3.70;;
60086;SDS011;45960;53.630;55.972;2023-07-31T00:54:56;9.65;;;3.47;;
60086;SDS011;45960;53.630;55.972;2023-07-31T00:55:57;13.85;;;3.38;;
60086;SDS011;45960;53.630;55.972;2023-07-31T00:56:59;6.95;;;3.08;;
60086;SDS011;45960;53.630;55.972;2023-07-31T00:58:00;9.98;;;3.28;;
60086;SDS011;45960;53.630;55.972;2023-07-31T00:59:01;7.00;;;3.22;;
60086;SDS011;45960;53.630;55.972;2023-07-31T01:00:02;12.05;;;3.80;;
60086;SDS011;45960;53.630;55.972;2023-07-31T01:01:04;12.82;;;3.60;;
60086;SDS011;45960;53.630;55.972;2023-07-31T01:02:05;5.70;;;3.53;;
60086;SDS011;45960;53.630;55.972;2023-07-31T01:03:07;7.38;;;3.22;;
60086;SDS011;45960;53.630;55.972;2023-07-31T01:04:08;11.02;;;3.53;;
60086;SDS011;45960;53.630;55.972;2023-07-31T01:05:09;9.80;;;4.03;;
60086;SDS011;45960;53.630;55.972;2023-07-31T01:06:17;10.77;;;3.00;;
60086;SDS011;45960;53.630;55.972;2023-07-31T01:08:54;7.57;;;3.42;;
60086;SDS011;45960;53.630;55.972;2023-07-31T01:10:16;7.95;;;3.28;;
60086;SDS011;45960;53.630;55.972;2023-07-31T01:11:32;10.23;;;3.33;;
60086;SDS011;45960;53.630;55.972;2023-07-31T01:12:35;6.55;;;2.78;;
60086;SDS011;45960;53.630;55.972;2023-07-31T01:13:39;10.23;;;3.97;;
60086;SDS011;45960;53.630;55.972;2023-07-31T01:14:40;10.70;;;3.25;;
60086;SDS011;45960;53.630;55.972;2023-07-31T01:15:41;6.95;;;3.33;;
60086;SDS011;45960;53.630;55.972;2023-07-31T01:16:42;9.77;;;3.78;;
60086;SDS011;45960;53.630;55.972;2023-07-31T01:17:43;11.18;;;3.28;;
60086;SDS011;45960;53.630;55.972;2023-07-31T01:18:44;9.00;;;3.65;;
60086;SDS011;45960;53.630;55.972;2023-07-31T01:19:45;13.10;;;4.38;;
60086;SDS011;45960;53.630;55.972;2023-07-31T01:20:57;11.25;;;3.33;;
60086;SDS011;45960;53.630;55.972;2023-07-31T01:27:14;8.70;;;3.55;;
60086;SDS011;45960;53.630;55.972;2023-07-31T01:28:23;18.73;;;3.63;;
60086;SDS011;45960;53.630;55.972;2023-07-31T01:29:38;12.40;;;3.03;;
60086;SDS011;45960;53.630;55.972;2023-07-31T01:30:47;6.78;;;3.13;;
60086;SDS011;45960;53.630;55.972;2023-07-31T01:31:50;6.20;;;3.50;;
60086;SDS011;45960;53.630;55.972;2023-07-31T01:32:56;8.20;;;3.75;;
60086;SDS011;45960;53.630;55.972;2023-07-31T01:34:00;5.93;;;3.45;;
60086;SDS011;45960;53.630;55.972;2023-07-31T01:35:02;7.95;;;3.90;;
60086;SDS011;45960;53.630;55.972;2023-07-31T01:36:04;8.05;;;3.65;;
60086;SDS011;45960;53.630;55.972;2023-07-31T01:37:05;5.90;;;3.42;;
60086;SDS011;45960;53.630;55.972;2023-07-31T01:38:06;6.30;;;3.65;;
60086;SDS011;45960;53.630;55.972;2023-07-31T01:39:08;7.82;;;3.75;;
60086;SDS011;45960;53.630;55.972;2023-07-31T01:40:09;9.90;;;3.88;;
60086;SDS011;45960;53.630;55.972;2023-07-31T01:41:10;5.50;;;3.17;;
60086;SDS011;45960;53.630;55.972;2023-07-31T01:42:12;7.28;;;3.22;;
60086;SDS011;45960;53.630;55.972;2023-07-31T01:43:13;6.53;;;3.60;;
60086;SDS011;45960;53.630;55.972;2023-07-31T01:44:14;7.75;;;3.33;;
60086;SDS011;45960;53.630;55.972;2023-07-31T01:45:15;8.00;;;3.50;;
60086;SDS011;45960;53.630;55.972;2023-07-31T01:46:16;6.55;;;2.92;;
60086;SDS011;45960;53.630;55.972;2023-07-31T01:47:17;12.98;;;4.25;;
60086;SDS011;45960;53.630;55.972;2023-07-31T01:48:18;6.57;;;3.20;;
60086;SDS011;45960;53.630;55.972;2023-07-31T01:49:19;5.90;;;3.55;;
60086;SDS011;45960;53.630;55.972;2023-07-31T01:50:20;5.03;;;2.92;;
60086;SDS011;45960;53.630;55.972;2023-07-31T01:51:22;6.40;;;3.13;;
60086;SDS011;45960;53.630;55.972;2023-07-31T01:52:23;10.95;;;3.63;;
60086;SDS011;45960;53.630;55.972;2023-07-31T01:53:24;8.38;;;3.20;;
60086;SDS011;45960;53.630;55.972;2023-07-31T01:54:25;6.50;;;2.83;;
60086;SDS011;45960;53.630;55.972;2023-07-31T01:55:26;8.00;;;3.60;;
60086;SDS011;45960;53.630;55.972;2023-07-31T01:56:27;11.95;;;3.40;;
60086;SDS011;45960;53.630;55.972;2023-07-31T01:57:28;9.88;;;4.20;;
60086;SDS011;45960;53.630;55.972;2023-07-31T01:58:29;8.93;;;3.15;;
60086;SDS011;45960;53.630;55.972;2023-07-31T01:59:30;8.88;;;3.67;;
60086;SDS011;45960;53.630;55.972;2023-07-31T02:00:31;8.75;;;3.47;;
60086;SDS011;45960;53.630;55.972;2023-07-31T02:01:33;8.73;;;3.10;;
60086;SDS011;45960;53.630;55.972;2023-07-31T02:02:34;19.40;;;3.50;;
60086;SDS011;45960;53.630;55.972;2023-07-31T02:03:35;7.70;;;2.97;;
60086;SDS011;45960;53.630;55.972;2023-07-31T02:04:36;7.68;;;3.47;;
60086;SDS011;45960;53.630;55.972;2023-07-31T02:05:48;7.20;;;3.15;;
60086;SDS011;45960;53.630;55.972;2023-07-31T02:06:50;12.43;;;3.17;;
60086;SDS011;45960;53.630;55.972;2023-07-31T02:07:51;8.90;;;3.08;;
60086;SDS011;45960;53.630;55.972;2023-07-31T02:08:52;5.72;;;3.08;;
60086;SDS011;45960;53.630;55.972;2023-07-31T02:09:53;7.07;;;3.25;;
60086;SDS011;45960;53.630;55.972;2023-07-31T02:10:54;7.75;;;3.17;;
60086;SDS011;45960;53.630;55.972;2023-07-31T02:11:55;9.88;;;3.28;;
60086;SDS011;45960;53.630;55.972;2023-07-31T02:12:56;10.65;;;3.08;;
60086;SDS011;45960;53.630;55.972;2023-07-31T02:13:58;5.63;;;2.80;;
60086;SDS011;45960;53.630;55.972;2023-07-31T02:14:59;23.88;;;3.55;;
60086;SDS011;45960;53.630;55.972;2023-07-31T02:16:00;9.25;;;2.92;;
60086;SDS011;45960;53.630;55.972;2023-07-31T02:17:02;8.18;;;3.28;;
60086;SDS011;45960;53.630;55.972;2023-07-31T02:18:03;4.80;;;3.00;;
60086;SDS011;45960;53.630;55.972;2023-07-31T02:19:10;10.82;;;3.03;;
60086;SDS011;45960;53.630;55.972;2023-07-31T02:20:11;11.32;;;3.67;;
60086;SDS011;45960;53.630;55.972;2023-07-31T02:21:12;5.05;;;2.70;;
60086;SDS011;45960;53.630;55.972;2023-07-31T02:22:13;7.50;;;2.72;;
60086;SDS011;45960;53.630;55.972;2023-07-31T02:23:14;10.15;;;2.38;;
60086;SDS011;45960;53.630;55.972;2023-07-31T02:24:15;6.40;;;2.95;;
60086;SDS011;45960;53.630;55.972;2023-07-31T02:25:16;6.00;;;2.47;;
60086;SDS011;45960;53.630;55.972;2023-07-31T02:26:17;4.68;;;2.63;;
60086;SDS011;45960;53.630;55.972;2023-07-31T02:27:18;10.20;;;2.42;;
60086;SDS011;45960;53.630;55.972;2023-07-31T02:28:19;9.05;;;2.80;;
60086;SDS011;45960;53.630;55.972;2023-07-31T02:29:21;11.07;;;3.22;;
60086;SDS011;45960;53.630;55.972;2023-07-31T02:30:21;5.47;;;2.50;;
60086;SDS011;45960;53.630;55.972;2023-07-31T02:31:23;9.88;;;3.20;;
60086;SDS011;45960;53.630;55.972;2023-07-31T02:32:23;9.23;;;2.88;;
60086;SDS011;45960;53.630;55.972;2023-07-31T02:33:24;9.27;;;2.90;;
60086;SDS011;45960;53.630;55.972;2023-07-31T02:34:25;7.78;;;2.65;;
60086;SDS011;45960;53.630;55.972;2023-07-31T02:35:27;5.38;;;2.70;;
60086;SDS011;45960;53.630;55.972;2023-07-31T02:36:28;7.47;;;3.50;;
60086;SDS011;45960;53.630;55.972;2023-07-31T02:37:30;11.90;;;4.38;;
60086;SDS011;45960;53.630;55.972;2023-07-31T02:38:31;5.65;;;3.72;;
60086;SDS011;45960;53.630;55.972;2023-07-31T02:39:32;8.48;;;3.72;;
60086;SDS011;45960;53.630;55.972;2023-07-31T02:40:33;7.28;;;3.58;;
60086;SDS011;45960;53.630;55.972;2023-07-31T02:41:34;15.18;;;5.55;;
60086;SDS011;45960;53.630;55.972;2023-07-31T02:42:36;13.50;;;4.75;;
60086;SDS011;45960;53.630;55.972;2023-07-31T02:43:37;14.18;;;4.55;;
60086;SDS011;45960;53.630;55.972;2023-07-31T02:44:38;29.48;;;5.30;;
60086;SDS011;45960;53.630;55.972;2023-07-31T02:45:39;18.85;;;5.35;;
60086;SDS011;45960;53.630;55.972;2023-07-31T02:46:40;16.15;;;6.53;;
60086;SDS011;45960;53.630;55.972;2023-07-31T02:47:41;18.83;;;8.90;;
60086;SDS011;45960;53.630;55.972;2023-07-31T02:48:42;17.23;;;8.52;;
60086;SDS011;45960;53.630;55.972;2023-07-31T02:49:43;18.60;;;8.75;;
60086;SDS011;45960;53.630;55.972;2023-07-31T02:50:44;16.38;;;7.25;;
60086;SDS011;45960;53.630;55.972;2023-07-31T02:51:46;15.05;;;6.53;;
60086;SDS011;45960;53.630;55.972;2023-07-31T02:52:47;16.23;;;5.93;;
60086;SDS011;45960;53.630;55.972;2023-07-31T02:53:48;9.07;;;5.35;;
60086;SDS011;45960;53.630;55.972;2023-07-31T02:54:50;11.38;;;4.60;;
60086;SDS011;45960;53.630;55.972;2023-07-31T02:55:51;13.65;;;4.82;;
60086;SDS011;45960;53.630;55.972;2023-07-31T02:56:52;9.65;;;4.78;;
60086;SDS011;45960;53.630;55.972;2023-07-31T02:57:53;5.53;;;3.67;;
60086;SDS011;45960;53.630;55.972;2023-07-31T02:58:55;10.57;;;4.22;;
60086;SDS011;45960;53.630;55.972;2023-07-31T02:59:56;9.43;;;4.53;;
60086;SDS011;45960;53.630;55.972;2023-07-31T03:00:58;17.73;;;9.40;;
60086;SDS011;45960;53.630;55.972;2023-07-31T03:01:59;27.70;;;14.38;;
60086;SDS011;45960;53.630;55.972;2023-07-31T03:03:00;12.77;;;5.88;;
60086;SDS011;45960;53.630;55.972;2023-07-31T03:04:06;13.88;;;6.15;;
60086;SDS011;45960;53.630;55.972;2023-07-31T03:05:08;46.05;;;5.32;;
60086;SDS011;45960;53.630;55.972;2023-07-31T03:06:09;13.48;;;4.38;;
60086;SDS011;45960;53.630;55.972;2023-07-31T03:07:10;10.68;;;4.43;;
60086;SDS011;45960;53.630;55.972;2023-07-31T03:08:12;12.80;;;4.20;;
60086;SDS011;45960;53.630;55.972;2023-07-31T03:09:12;22.75;;;4.93;;
60086;SDS011;45960;53.630;55.972;2023-07-31T03:10:14;10.52;;;3.83;;
60086;SDS011;45960;53.630;55.972;2023-07-31T03:11:15;20.73;;;4.82;;
60086;SDS011;45960;53.630;55.972;2023-07-31T03:12:17;10.85;;;4.05;;
60086;SDS011;45960;53.630;55.972;2023-07-31T03:13:18;9.63;;;4.32;;
60086;SDS011;45960;53.630;55.972;2023-07-31T03:14:19;8.65;;;4.20;;
60086;SDS011;45960;53.630;55.972;2023-07-31T03:15:20;10.45;;;3.88;;
60086;SDS011;45960;53.630;55.972;2023-07-31T03:16:21;7.63;;;4.20;;
60086;SDS011;45960;53.630;55.972;2023-07-31T03:17:22;5.90;;;3.55;;
60086;SDS011;45960;53.630;55.972;2023-07-31T03:18:23;12.38;;;3.80;;
60086;SDS011;45960;53.630;55.972;2023-07-31T03:19:24;7.50;;;3.70;;
60086;SDS011;45960;53.630;55.972;2023-07-31T03:20:26;11.30;;;3.90;;
60086;SDS011;45960;53.630;55.972;2023-07-31T03:21:27;9.70;;;3.60;;
60086;SDS011;45960;53.630;55.972;2023-07-31T03:22:28;8.75;;;3.78;;
60086;SDS011;45960;53.630;55.972;2023-07-31T03:23:29;6.78;;;3.53;;
60086;SDS011;45960;53.630;55.972;2023-07-31T03:24:30;10.85;;;3.65;;
60086;SDS011;45960;53.630;55.972;2023-07-31T03:25:31;8.15;;;3.15;;
60086;SDS011;45960;53.630;55.972;2023-07-31T03:26:32;6.78;;;2.88;;
60086;SDS011;45960;53.630;55.972;2023-07-31T03:27:33;10.48;;;3.45;;
60086;SDS011;45960;53.630;55.972;2023-07-31T03:28:34;10.73;;;3.10;;
60086;SDS011;45960;53.630;55.972;2023-07-31T03:29:35;11.25;;;3.33;;
60086;SDS011;45960;53.630;55.972;2023-07-31T03:30:36;10.70;;;3.25;;
60086;SDS011;45960;53.630;55.972;2023-07-31T03:31:38;4.90;;;3.38;;
60086;SDS011;45960;53.630;55.972;2023-07-31T03:32:41;7.05;;;3.47;;
60086;SDS011;45960;53.630;55.972;2023-07-31T03:33:42;6.80;;;3.40;;
60086;SDS011;45960;53.630;55.972;2023-07-31T03:34:43;12.30;;;3.38;;
60086;SDS011;45960;53.630;55.972;2023-07-31T03:35:44;7.45;;;3.58;;
60086;SDS011;45960;53.630;55.972;2023-07-31T03:36:45;9.15;;;3.55;;
60086;SDS011;45960;53.630;55.972;2023-07-31T03:37:46;8.65;;;3.88;;
60086;SDS011;45960;53.630;55.972;2023-07-31T03:38:47;5.47;;;3.83;;
60086;SDS011;45960;53.630;55.972;2023-07-31T03:39:48;6.43;;;3.55;;
60086;SDS011;45960;53.630;55.972;2023-07-31T03:40:49;8.95;;;3.80;;
60086;SDS011;45960;53.630;55.972;2023-07-31T03:41:50;10.95;;;3.38;;
60086;SDS011;45960;53.630;55.972;2023-07-31T03:42:52;8.65;;;3.75;;
60086;SDS011;45960;53.630;55.972;2023-07-31T03:43:53;8.63;;;3.95;;
60086;SDS011;45960;53.630;55.972;2023-07-31T03:44:56;18.75;;;4.10;;
60086;SDS011;45960;53.630;55.972;2023-07-31T03:45:57;11.68;;;2.72;;
60086;SDS011;45960;53.630;55.972;2023-07-31T03:46:59;8.38;;;2.70;;
60086;SDS011;45960;53.630;55.972;2023-07-31T03:48:00;5.85;;;2.28;;
60086;SDS011;45960;53.630;55.972;2023-07-31T03:49:01;12.02;;;2.33;;
60086;SDS011;45960;53.630;55.972;2023-07-31T03:50:02;5.35;;;2.38;;
60086;SDS011;45960;53.630;55.972;2023-07-31T03:51:05;7.40;;;2.10;;
60086;SDS011;45960;53.630;55.972;2023-07-31T03:52:06;15.35;;;2.53;;
60086;SDS011;45960;53.630;55.972;2023-07-31T03:53:07;8.13;;;1.95;;
60086;SDS011;45960;53.630;55.972;2023-07-31T03:54:08;8.15;;;1.92;;
60086;SDS011;45960;53.630;55.972;2023-07-31T03:55:09;7.95;;;1.98;;
60086;SDS011;45960;53.630;55.972;2023-07-31T03:56:10;3.63;;;1.98;;
60086;SDS011;45960;53.630;55.972;2023-07-31T03:57:12;6.20;;;1.80;;
60086;SDS011;45960;53.630;55.972;2023-07-31T03:58:12;6.00;;;1.70;;
60086;SDS011;45960;53.630;55.972;2023-07-31T03:59:13;5.18;;;1.77;;
60086;SDS011;45960;53.630;55.972;2023-07-31T04:00:14;6.53;;;1.77;;
60086;SDS011;45960;53.630;55.972;2023-07-31T04:01:16;13.52;;;2.08;;
60086;SDS011;45960;53.630;55.972;2023-07-31T04:02:18;12.60;;;2.45;;
60086;SDS011;45960;53.630;55.972;2023-07-31T04:03:19;3.38;;;1.77;;
60086;SDS011;45960;53.630;55.972;2023-07-31T04:04:20;13.90;;;2.53;;
60086;SDS011;45960;53.630;55.972;2023-07-31T04:05:21;10.45;;;1.88;;
60086;SDS011;45960;53.630;55.972;2023-07-31T04:06:22;3.47;;;1.63;;
60086;SDS011;45960;53.630;55.972;2023-07-31T04:07:23;8.20;;;1.88;;
60086;SDS011;45960;53.630;55.972;2023-07-31T04:08:24;7.88;;;1.83;;
60086;SDS011;45960;53.630;55.972;2023-07-31T04:09:25;3.75;;;1.90;;
60086;SDS011;45960;53.630;55.972;2023-07-31T04:10:27;5.63;;;2.10;;
60086;SDS011;45960;53.630;55.972;2023-07-31T04:11:30;4.28;;;1.50;;
60086;SDS011;45960;53.630;55.972;2023-07-31T04:12:32;2.10;;;1.35;;
60086;SDS011;45960;53.630;55.972;2023-07-31T04:13:34;5.53;;;1.50;;
60086;SDS011;45960;53.630;55.972;2023-07-31T04:14:36;6.28;;;1.55;;
60086;SDS011;45960;53.630;55.972;2023-07-31T04:15:39;8.00;;;1.67;;
60086;SDS011;45960;53.630;55.972;2023-07-31T04:16:41;9.23;;;2.17;;
60086;SDS011;45960;53.630;55.972;2023-07-31T04:17:42;4.22;;;1.63;;
60086;SDS011;45960;53.630;55.972;2023-07-31T04:18:43;5.05;;;2.13;;
60086;SDS011;45960;53.630;55.972;2023-07-31T04:19:45;1.90;;;1.70;;
60086;SDS011;45960;53.630;55.972;2023-07-31T04:20:46;7.90;;;1.70;;
60086;SDS011;45960;53.630;55.972;2023-07-31T04:21:47;2.80;;;1.55;;
60086;SDS011;45960;53.630;55.972;2023-07-31T04:22:49;8.57;;;1.80;;
60086;SDS011;45960;53.630;55.972;2023-07-31T04:23:50;3.65;;;2.00;;
60086;SDS011;45960;53.630;55.972;2023-07-31T04:24:51;3.70;;;1.58;;
60086;SDS011;45960;53.630;55.972;2023-07-31T04:25:53;7.05;;;1.75;;
60086;SDS011;45960;53.630;55.972;2023-07-31T04:26:54;13.13;;;2.20;;
60086;SDS011;45960;53.630;55.972;2023-07-31T04:27:55;6.13;;;1.80;;
60086;SDS011;45960;53.630;55.972;2023-07-31T04:28:56;6.72;;;1.35;;
60086;SDS011;45960;53.630;55.972;2023-07-31T04:29:56;5.80;;;1.58;;
60086;SDS011;45960;53.630;55.972;2023-07-31T04:30:57;4.15;;;1.83;;
60086;SDS011;45960;53.630;55.972;2023-07-31T04:31:59;8.65;;;1.45;;
60086;SDS011;45960;53.630;55.972;2023-07-31T04:33:00;4.90;;;1.63;;
60086;SDS011;45960;53.630;55.972;2023-07-31T04:34:01;2.15;;;1.35;;
60086;SDS011;45960;53.630;55.972;2023-07-31T04:35:02;7.60;;;1.98;;
60086;SDS011;45960;53.630;55.972;2023-07-31T04:36:04;9.05;;;1.85;;
60086;SDS011;45960;53.630;55.972;2023-07-31T04:37:06;15.30;;;2.50;;
60086;SDS011;45960;53.630;55.972;2023-07-31T04:38:07;7.40;;;1.90;;
60086;SDS011;45960;53.630;55.972;2023-07-31T04:39:08;2.67;;;1.80;;
60086;SDS011;45960;53.630;55.972;2023-07-31T04:40:09;13.25;;;1.90;;
60086;SDS011;45960;53.630;55.972;2023-07-31T04:41:10;10.40;;;1.98;;
60086;SDS011;45960;53.630;55.972;2023-07-31T04:42:11;6.00;;;1.80;;
60086;SDS011;45960;53.630;55.972;2023-07-31T04:43:12;8.13;;;2.03;;
60086;SDS011;45960;53.630;55.972;2023-07-31T04:44:13;5.28;;;1.52;;
60086;SDS011;45960;53.630;55.972;2023-07-31T04:45:14;5.72;;;1.50;;
60086;SDS011;45960;53.630;55.972;2023-07-31T04:46:16;6.50;;;1.70;;
60086;SDS011;45960;53.630;55.972;2023-07-31T04:47:17;4.82;;;1.65;;
60086;SDS011;45960;53.630;55.972;2023-07-31T04:48:18;5.70;;;1.48;;
60086;SDS011;45960;53.630;55.972;2023-07-31T04:49:19;6.93;;;1.88;;
60086;SDS011;45960;53.630;55.972;2023-07-31T04:50:20;3.47;;;1.55;;
60086;SDS011;45960;53.630;55.972;2023-07-31T04:51:21;2.85;;;1.67;;
60086;SDS011;45960;53.630;55.972;2023-07-31T04:52:22;6.53;;;2.10;;
60086;SDS011;45960;53.630;55.972;2023-07-31T04:53:23;3.65;;;2.00;;
60086;SDS011;45960;53.630;55.972;2023-07-31T04:54:24;7.10;;;2.33;;
60086;SDS011;45960;53.630;55.972;2023-07-31T04:55:25;3.58;;;2.00;;
60086;SDS011;45960;53.630;55.972;2023-07-31T04:56:26;3.83;;;1.90;;
60086;SDS011;45960;53.630;55.972;2023-07-31T04:57:27;9.50;;;1.98;;
60086;SDS011;45960;53.630;55.972;2023-07-31T04:58:28;3.42;;;1.60;;
60086;SDS011;45960;53.630;55.972;2023-07-31T04:59:29;8.77;;;2.10;;
60086;SDS011;45960;53.630;55.972;2023-07-31T05:00:30;6.63;;;1.98;;
60086;SDS011;45960;53.630;55.972;2023-07-31T05:01:31;4.65;;;1.90;;
60086;SDS011;45960;53.630;55.972;2023-07-31T05:02:32;5.63;;;1.75;;
60086;SDS011;45960;53.630;55.972;2023-07-31T05:03:33;4.38;;;1.63;;
60086;SDS011;45960;53.630;55.972;2023-07-31T05:04:34;4.90;;;1.55;;
60086;SDS011;45960;53.630;55.972;2023-07-31T05:05:35;3.08;;;1.63;;
60086;SDS011;45960;53.630;55.972;2023-07-31T05:06:36;4.55;;;1.40;;
60086;SDS011;45960;53.630;55.972;2023-07-31T05:07:37;5.68;;;1.60;;
60086;SDS011;45960;53.630;55.972;2023-07-31T05:08:38;4.97;;;1.40;;
60086;SDS011;45960;53.630;55.972;2023-07-31T05:09:39;2.95;;;1.30;;
60086;SDS011;45960;53.630;55.972;2023-07-31T05:10:40;4.60;;;1.52;;
60086;SDS011;45960;53.630;55.972;2023-07-31T05:11:41;3.25;;;1.48;;
60086;SDS011;45960;53.630;55.972;2023-07-31T05:12:43;7.53;;;1.70;;
60086;SDS011;45960;53.630;55.972;2023-07-31T05:13:44;1.88;;;1.25;;
60086;SDS011;45960;53.630;55.972;2023-07-31T05:14:45;5.35;;;1.83;;
60086;SDS011;45960;53.630;55.972;2023-07-31T05:15:46;6.45;;;1.48;;
60086;SDS011;45960;53.630;55.972;2023-07-31T05:16:50;4.03;;;1.73;;
60086;SDS011;45960;53.630;55.972;2023-07-31T05:17:51;3.45;;;1.55;;
60086;SDS011;45960;53.630;55.972;2023-07-31T05:18:52;4.72;;;1.58;;
60086;SDS011;45960;53.630;55.972;2023-07-31T05:19:53;6.13;;;1.20;;
60086;SDS011;45960;53.630;55.972;2023-07-31T05:20:54;6.80;;;1.25;;
60086;SDS011;45960;53.630;55.972;2023-07-31T05:21:55;3.40;;;1.20;;
60086;SDS011;45960;53.630;55.972;2023-07-31T05:22:56;3.95;;;1.50;;
60086;SDS011;45960;53.630;55.972;2023-07-31T05:23:57;5.05;;;1.40;;
60086;SDS011;45960;53.630;55.972;2023-07-31T05:24:58;15.32;;;1.45;;
60086;SDS011;45960;53.630;55.972;2023-07-31T05:26:05;4.13;;;1.15;;
60086;SDS011;45960;53.630;55.972;2023-07-31T05:27:07;3.67;;;1.10;;
60086;SDS011;45960;53.630;55.972;2023-07-31T05:28:10;1.65;;;1.10;;
60086;SDS011;45960;53.630;55.972;2023-07-31T05:29:11;6.97;;;1.73;;
60086;SDS011;45960;53.630;55.972;2023-07-31T05:30:12;4.18;;;1.40;;
60086;SDS011;45960;53.630;55.972;2023-07-31T05:31:13;4.15;;;1.52;;
60086;SDS011;45960;53.630;55.972;2023-07-31T05:32:14;5.72;;;1.48;;
60086;SDS011;45960;53.630;55.972;2023-07-31T05:33:15;4.10;;;1.42;;
60086;SDS011;45960;53.630;55.972;2023-07-31T05:34:16;3.22;;;1.15;;
60086;SDS011;45960;53.630;55.972;2023-07-31T05:35:17;6.38;;;1.40;;
60086;SDS011;45960;53.630;55.972;2023-07-31T05:36:18;16.15;;;1.35;;
60086;SDS011;45960;53.630;55.972;2023-07-31T05:37:19;5.22;;;1.20;;
60086;SDS011;45960;53.630;55.972;2023-07-31T05:38:20;3.38;;;1.27;;
60086;SDS011;45960;53.630;55.972;2023-07-31T05:39:22;7.25;;;1.38;;
60086;SDS011;45960;53.630;55.972;2023-07-31T05:40:23;7.28;;;1.73;;
60086;SDS011;45960;53.630;55.972;2023-07-31T05:41:24;3.08;;;0.77;;
60086;SDS011;45960;53.630;55.972;2023-07-31T05:42:24;4.60;;;1.40;;
60086;SDS011;45960;53.630;55.972;2023-07-31T05:43:25;4.03;;;1.00;;
60086;SDS011;45960;53.630;55.972;2023-07-31T05:44:26;5.22;;;1.00;;
60086;SDS011;45960;53.630;55.972;2023-07-31T05:45:27;3.75;;;0.95;;
60086;SDS011;45960;53.630;55.972;2023-07-31T05:46:28;9.98;;;1.50;;
60086;SDS011;45960;53.630;55.972;2023-07-31T05:47:29;3.25;;;1.05;;
60086;SDS011;45960;53.630;55.972;2023-07-31T05:48:30;8.77;;;1.10;;
60086;SDS011;45960;53.630;55.972;2023-07-31T05:49:31;23.40;;;2.70;;
60086;SDS011;45960;53.630;55.972;2023-07-31T05:50:32;3.50;;;1.23;;
60086;SDS011;45960;53.630;55.972;2023-07-31T05:51:33;3.42;;;1.00;;
60086;SDS011;45960;53.630;55.972;2023-07-31T05:52:34;3.85;;;0.90;;
60086;SDS011;45960;53.630;55.972;2023-07-31T05:53:35;5.07;;;1.10;;
60086;SDS011;45960;53.630;55.972;2023-07-31T05:54:41;2.67;;;1.20;;
60086;SDS011;45960;53.630;55.972;2023-07-31T05:55:42;2.72;;;1.52;;
60086;SDS011;45960;53.630;55.972;2023-07-31T05:56:43;5.82;;;1.10;;
60086;SDS011;45960;53.630;55.972;2023-07-31T05:57:44;3.08;;;1.10;;
60086;SDS011;45960;53.630;55.972;2023-07-31T05:58:46;3.42;;;1.15;;
60086;SDS011;45960;53.630;55.972;2023-07-31T05:59:47;2.83;;;1.10;;
60086;SDS011;45960;53.630;55.972;2023-07-31T06:00:48;4.57;;;1.10;;
60086;SDS011;45960;53.630;55.972;2023-07-31T06:01:49;5.80;;;1.25;;
60086;SDS011;45960;53.630;55.972;2023-07-31T06:02:50;2.92;;;1.30;;
60086;SDS011;45960;53.630;55.972;2023-07-31T06:03:51;6.93;;;1.30;;
60086;SDS011;45960;53.630;55.972;2023-07-31T06:04:53;5.55;;;1.35;;
60086;SDS011;45960;53.630;55.972;2023-07-31T06:05:54;2.90;;;1.10;;
60086;SDS011;45960;53.630;55.972;2023-07-31T06:06:56;2.00;;;0.95;;
60086;SDS011;45960;53.630;55.972;2023-07-31T06:07:57;7.90;;;1.33;;
60086;SDS011;45960;53.630;55.972;2023-07-31T06:08:58;4.97;;;1.33;;
60086;SDS011;45960;53.630;55.972;2023-07-31T06:09:59;8.07;;;1.52;;
60086;SDS011;45960;53.630;55.972;2023-07-31T06:11:06;4.55;;;1.27;;